sensor_id;sensor_type;location;lat;lon;timestamp;temperature;humidity
10304;DHT22;5197;48.152;8.590;2024-01-11T00:00:59;-4.90;14.90
10304;DHT22;5197;48.152;8.590;2024-01-11T00:03:26;-4.90;15.00
10304;DHT22;5197;48.152;8.590;2024-01-11T00:05:53;-4.90;15.10
10304;DHT22;5197;48.152;8.590;2024-01-11T00:08:20;-5.00;14.90
10304;DHT22;5197;48.152;8.590;2024-01-11T00:10:47;-5.00;14.90
10304;DHT22;5197;48.152;8.590;2024-01-11T00:13:14;-5.00;15.00
10304;DHT22;5197;48.152;8.590;2024-01-11T00:15:40;-5.00;14.90
10304;DHT22;5197;48.152;8.590;2024-01-11T00:18:07;-5.10;14.80
10304;DHT22;5197;48.152;8.590;2024-01-11T00:20:34;-5.10;15.00
10304;DHT22;5197;48.152;8.590;2024-01-11T00:23:01;-5.10;14.90
10304;DHT22;5197;48.152;8.590;2024-01-11T00:25:28;-5.10;14.90
10304;DHT22;5197;48.152;8.590;2024-01-11T00:27:55;-5.20;14.90
10304;DHT22;5197;48.152;8.590;2024-01-11T00:30:22;-5.20;14.90
10304;DHT22;5197;48.152;8.590;2024-01-11T00:32:50;-5.20;14.90
10304;DHT22;5197;48.152;8.590;2024-01-11T00:35:17;-5.20;15.50
10304;DHT22;5197;48.152;8.590;2024-01-11T00:37:44;-5.20;14.70
10304;DHT22;5197;48.152;8.590;2024-01-11T00:40:11;-5.30;14.60
10304;DHT22;5197;48.152;8.590;2024-01-11T00:42:38;-5.30;14.60
10304;DHT22;5197;48.152;8.590;2024-01-11T00:45:05;-5.30;14.70
10304;DHT22;5197;48.152;8.590;2024-01-11T00:47:32;-5.40;14.70
10304;DHT22;5197;48.152;8.590;2024-01-11T00:49:59;-5.40;14.90
10304;DHT22;5197;48.152;8.590;2024-01-11T00:52:26;-5.40;15.00
10304;DHT22;5197;48.152;8.590;2024-01-11T00:54:53;-5.40;14.30
10304;DHT22;5197;48.152;8.590;2024-01-11T00:57:20;-5.50;15.00
10304;DHT22;5197;48.152;8.590;2024-01-11T00:59:48;-5.40;15.00
10304;DHT22;5197;48.152;8.590;2024-01-11T01:02:15;-5.40;15.10
10304;DHT22;5197;48.152;8.590;2024-01-11T01:04:42;-5.40;15.10
10304;DHT22;5197;48.152;8.590;2024-01-11T01:07:09;-5.40;15.00
10304;DHT22;5197;48.152;8.590;2024-01-11T01:09:36;-5.40;14.80
10304;DHT22;5197;48.152;8.590;2024-01-11T01:12:03;-5.40;14.70
10304;DHT22;5197;48.152;8.590;2024-01-11T01:14:30;-5.30;14.70
10304;DHT22;5197;48.152;8.590;2024-01-11T01:16:57;-5.40;14.50
10304;DHT22;5197;48.152;8.590;2024-01-11T01:19:24;-5.40;14.30
10304;DHT22;5197;48.152;8.590;2024-01-11T01:21:51;-5.40;14.30
10304;DHT22;5197;48.152;8.590;2024-01-11T01:24:18;-5.40;15.20
10304;DHT22;5197;48.152;8.590;2024-01-11T01:26:45;-5.50;14.40
10304;DHT22;5197;48.152;8.590;2024-01-11T01:29:12;-5.50;14.50
10304;DHT22;5197;48.152;8.590;2024-01-11T01:31:38;-5.40;14.60
10304;DHT22;5197;48.152;8.590;2024-01-11T01:34:07;-5.50;14.60
10304;DHT22;5197;48.152;8.590;2024-01-11T01:36:34;-5.60;14.40
10304;DHT22;5197;48.152;8.590;2024-01-11T01:39:00;-5.60;14.40
10304;DHT22;5197;48.152;8.590;2024-01-11T01:41:27;-5.60;14.60
10304;DHT22;5197;48.152;8.590;2024-01-11T01:43:54;-5.70;14.40
10304;DHT22;5197;48.152;8.590;2024-01-11T01:46:25;-5.70;14.60
10304;DHT22;5197;48.152;8.590;2024-01-11T01:48:53;-5.80;14.70
10304;DHT22;5197;48.152;8.590;2024-01-11T01:51:22;-5.80;14.80
10304;DHT22;5197;48.152;8.590;2024-01-11T01:53:52;-5.80;14.90
10304;DHT22;5197;48.152;8.590;2024-01-11T01:56:21;-5.80;14.90
10304;DHT22;5197;48.152;8.590;2024-01-11T01:58:50;-5.80;15.00
10304;DHT22;5197;48.152;8.590;2024-01-11T02:01:19;-5.80;15.10
10304;DHT22;5197;48.152;8.590;2024-01-11T02:03:49;-5.80;15.20
10304;DHT22;5197;48.152;8.590;2024-01-11T02:06:18;-5.80;15.20
10304;DHT22;5197;48.152;8.590;2024-01-11T02:08:49;-5.80;15.10
10304;DHT22;5197;48.152;8.590;2024-01-11T02:11:20;-5.80;14.90
10304;DHT22;5197;48.152;8.590;2024-01-11T02:13:49;-5.80;14.90
10304;DHT22;5197;48.152;8.590;2024-01-11T02:16:16;-5.80;14.90
10304;DHT22;5197;48.152;8.590;2024-01-11T02:18:43;-5.80;14.80
10304;DHT22;5197;48.152;8.590;2024-01-11T02:21:14;-5.70;14.90
10304;DHT22;5197;48.152;8.590;2024-01-11T02:26:28;-5.80;14.60
10304;DHT22;5197;48.152;8.590;2024-01-11T02:28:55;-5.80;14.70
10304;DHT22;5197;48.152;8.590;2024-01-11T02:31:24;-5.80;14.90
10304;DHT22;5197;48.152;8.590;2024-01-11T02:33:54;-5.80;15.90
10304;DHT22;5197;48.152;8.590;2024-01-11T02:36:22;-5.80;14.80
10304;DHT22;5197;48.152;8.590;2024-01-11T02:38:50;-5.80;14.60
10304;DHT22;5197;48.152;8.590;2024-01-11T02:41:18;-5.80;14.50
10304;DHT22;5197;48.152;8.590;2024-01-11T02:43:47;-5.80;14.40
10304;DHT22;5197;48.152;8.590;2024-01-11T02:46:17;-5.90;14.10
10304;DHT22;5197;48.152;8.590;2024-01-11T02:48:44;-6.00;14.10
10304;DHT22;5197;48.152;8.590;2024-01-11T02:51:11;-6.00;14.30
10304;DHT22;5197;48.152;8.590;2024-01-11T02:53:38;-6.00;14.50
10304;DHT22;5197;48.152;8.590;2024-01-11T02:56:05;-6.00;14.70
10304;DHT22;5197;48.152;8.590;2024-01-11T02:58:32;-6.10;14.50
10304;DHT22;5197;48.152;8.590;2024-01-11T03:00:59;-6.10;14.70
10304;DHT22;5197;48.152;8.590;2024-01-11T03:03:26;-6.10;14.50
10304;DHT22;5197;48.152;8.590;2024-01-11T03:05:53;-6.10;14.60
10304;DHT22;5197;48.152;8.590;2024-01-11T03:08:20;-6.10;14.80
10304;DHT22;5197;48.152;8.590;2024-01-11T03:10:47;-6.20;14.70
10304;DHT22;5197;48.152;8.590;2024-01-11T03:13:14;-6.10;15.70
10304;DHT22;5197;48.152;8.590;2024-01-11T03:15:41;-6.10;15.00
10304;DHT22;5197;48.152;8.590;2024-01-11T03:18:08;-6.20;15.00
10304;DHT22;5197;48.152;8.590;2024-01-11T03:20:35;-6.20;15.00
10304;DHT22;5197;48.152;8.590;2024-01-11T03:23:02;-6.30;14.60
10304;DHT22;5197;48.152;8.590;2024-01-11T03:25:30;-6.30;14.70
10304;DHT22;5197;48.152;8.590;2024-01-11T03:27:58;-6.30;14.10
10304;DHT22;5197;48.152;8.590;2024-01-11T03:30:26;-6.50;14.30
10304;DHT22;5197;48.152;8.590;2024-01-11T03:32:52;-6.50;14.70
10304;DHT22;5197;48.152;8.590;2024-01-11T03:35:20;-6.50;15.00
10304;DHT22;5197;48.152;8.590;2024-01-11T03:37:47;-6.50;15.10
10304;DHT22;5197;48.152;8.590;2024-01-11T03:40:14;-6.50;15.20
10304;DHT22;5197;48.152;8.590;2024-01-11T03:42:42;-6.50;15.20
10304;DHT22;5197;48.152;8.590;2024-01-11T03:45:09;-6.50;15.20
10304;DHT22;5197;48.152;8.590;2024-01-11T03:47:36;-6.40;15.20
10304;DHT22;5197;48.152;8.590;2024-01-11T03:50:03;-6.40;15.20
10304;DHT22;5197;48.152;8.590;2024-01-11T03:52:31;-6.40;15.20
10304;DHT22;5197;48.152;8.590;2024-01-11T03:54:58;-6.40;14.30
10304;DHT22;5197;48.152;8.590;2024-01-11T03:57:25;-6.40;15.00
10304;DHT22;5197;48.152;8.590;2024-01-11T03:59:51;-6.30;15.10
10304;DHT22;5197;48.152;8.590;2024-01-11T04:02:18;-6.40;15.20
10304;DHT22;5197;48.152;8.590;2024-01-11T04:04:45;-6.30;15.00
10304;DHT22;5197;48.152;8.590;2024-01-11T04:07:12;-6.30;15.00
10304;DHT22;5197;48.152;8.590;2024-01-11T04:09:39;-6.30;15.00
10304;DHT22;5197;48.152;8.590;2024-01-11T04:12:06;-6.30;14.60
10304;DHT22;5197;48.152;8.590;2024-01-11T04:14:38;-6.50;14.10
10304;DHT22;5197;48.152;8.590;2024-01-11T04:17:05;-6.50;14.40
10304;DHT22;5197;48.152;8.590;2024-01-11T04:19:33;-6.50;15.80
10304;DHT22;5197;48.152;8.590;2024-01-11T04:21:59;-6.50;14.90
10304;DHT22;5197;48.152;8.590;2024-01-11T04:24:26;-6.60;14.50
10304;DHT22;5197;48.152;8.590;2024-01-11T04:26:53;-6.70;14.10
10304;DHT22;5197;48.152;8.590;2024-01-11T04:29:20;-6.70;14.10
10304;DHT22;5197;48.152;8.590;2024-01-11T04:31:47;-6.80;14.20
10304;DHT22;5197;48.152;8.590;2024-01-11T04:34:14;-6.90;14.50
10304;DHT22;5197;48.152;8.590;2024-01-11T04:36:41;-6.90;15.00
10304;DHT22;5197;48.152;8.590;2024-01-11T04:39:08;-6.80;15.30
10304;DHT22;5197;48.152;8.590;2024-01-11T04:41:35;-6.80;15.60
10304;DHT22;5197;48.152;8.590;2024-01-11T04:44:05;-6.80;15.50
10304;DHT22;5197;48.152;8.590;2024-01-11T04:46:32;-6.80;15.40
10304;DHT22;5197;48.152;8.590;2024-01-11T04:48:59;-6.80;15.50
10304;DHT22;5197;48.152;8.590;2024-01-11T04:51:26;-6.80;15.30
10304;DHT22;5197;48.152;8.590;2024-01-11T04:53:53;-6.80;15.00
10304;DHT22;5197;48.152;8.590;2024-01-11T04:56:20;-6.80;14.90
10304;DHT22;5197;48.152;8.590;2024-01-11T04:58:47;-6.80;14.70
10304;DHT22;5197;48.152;8.590;2024-01-11T05:01:15;-6.80;14.80
10304;DHT22;5197;48.152;8.590;2024-01-11T05:03:44;-6.80;14.80
10304;DHT22;5197;48.152;8.590;2024-01-11T05:06:18;-6.90;14.70
10304;DHT22;5197;48.152;8.590;2024-01-11T05:08:47;-6.80;14.90
10304;DHT22;5197;48.152;8.590;2024-01-11T05:11:17;-6.90;14.60
10304;DHT22;5197;48.152;8.590;2024-01-11T05:13:45;-6.90;14.70
10304;DHT22;5197;48.152;8.590;2024-01-11T05:16:25;-6.90;14.60
10304;DHT22;5197;48.152;8.590;2024-01-11T05:18:53;-6.90;14.40
10304;DHT22;5197;48.152;8.590;2024-01-11T05:21:20;-6.90;14.40
10304;DHT22;5197;48.152;8.590;2024-01-11T05:23:48;-6.90;14.50
10304;DHT22;5197;48.152;8.590;2024-01-11T05:26:16;-6.90;14.50
10304;DHT22;5197;48.152;8.590;2024-01-11T05:28:43;-6.90;14.60
10304;DHT22;5197;48.152;8.590;2024-01-11T05:31:11;-7.40;14.10
10304;DHT22;5197;48.152;8.590;2024-01-11T05:33:39;-6.90;14.30
10304;DHT22;5197;48.152;8.590;2024-01-11T05:36:07;-6.90;14.20
10304;DHT22;5197;48.152;8.590;2024-01-11T05:38:34;-7.00;15.10
10304;DHT22;5197;48.152;8.590;2024-01-11T05:41:02;-7.00;14.20
10304;DHT22;5197;48.152;8.590;2024-01-11T05:43:29;-7.00;15.30
10304;DHT22;5197;48.152;8.590;2024-01-11T05:45:55;-7.00;14.30
10304;DHT22;5197;48.152;8.590;2024-01-11T05:48:22;-7.00;14.30
10304;DHT22;5197;48.152;8.590;2024-01-11T05:50:49;-7.00;14.30
10304;DHT22;5197;48.152;8.590;2024-01-11T05:53:16;-7.00;14.30
10304;DHT22;5197;48.152;8.590;2024-01-11T05:55:47;-7.10;14.10
10304;DHT22;5197;48.152;8.590;2024-01-11T05:58:16;-7.00;14.10
10304;DHT22;5197;48.152;8.590;2024-01-11T06:00:42;-7.00;14.20
10304;DHT22;5197;48.152;8.590;2024-01-11T06:03:11;-7.10;14.10
10304;DHT22;5197;48.152;8.590;2024-01-11T06:05:39;-7.10;14.10
10304;DHT22;5197;48.152;8.590;2024-01-11T06:08:06;-7.10;14.10
10304;DHT22;5197;48.152;8.590;2024-01-11T06:10:34;-7.10;13.90
10304;DHT22;5197;48.152;8.590;2024-01-11T06:13:01;-7.10;13.90
10304;DHT22;5197;48.152;8.590;2024-01-11T06:15:27;-7.10;13.80
10304;DHT22;5197;48.152;8.590;2024-01-11T06:17:54;-7.20;13.70
10304;DHT22;5197;48.152;8.590;2024-01-11T06:20:21;-7.20;13.40
10304;DHT22;5197;48.152;8.590;2024-01-11T06:22:48;-7.30;13.40
10304;DHT22;5197;48.152;8.590;2024-01-11T06:25:15;-7.40;13.60
10304;DHT22;5197;48.152;8.590;2024-01-11T06:27:43;-7.40;13.90
10304;DHT22;5197;48.152;8.590;2024-01-11T06:30:10;-7.40;14.00
10304;DHT22;5197;48.152;8.590;2024-01-11T06:32:38;-7.40;14.40
10304;DHT22;5197;48.152;8.590;2024-01-11T06:35:06;-7.30;14.40
10304;DHT22;5197;48.152;8.590;2024-01-11T06:37:33;-7.30;14.20
10304;DHT22;5197;48.152;8.590;2024-01-11T06:40:00;-7.30;14.10
10304;DHT22;5197;48.152;8.590;2024-01-11T06:42:28;-7.30;14.20
10304;DHT22;5197;48.152;8.590;2024-01-11T06:44:55;-7.30;14.10
10304;DHT22;5197;48.152;8.590;2024-01-11T06:47:21;-7.30;13.80
10304;DHT22;5197;48.152;8.590;2024-01-11T06:49:49;-7.20;13.60
10304;DHT22;5197;48.152;8.590;2024-01-11T06:52:15;-7.30;13.50
10304;DHT22;5197;48.152;8.590;2024-01-11T06:54:42;-7.30;13.40
10304;DHT22;5197;48.152;8.590;2024-01-11T06:57:09;-7.20;13.80
10304;DHT22;5197;48.152;8.590;2024-01-11T06:59:36;-7.20;13.80
10304;DHT22;5197;48.152;8.590;2024-01-11T07:02:04;-7.20;13.80
10304;DHT22;5197;48.152;8.590;2024-01-11T07:04:30;-7.10;14.00
10304;DHT22;5197;48.152;8.590;2024-01-11T07:07:00;-7.10;13.80
10304;DHT22;5197;48.152;8.590;2024-01-11T07:09:27;-7.00;14.10
10304;DHT22;5197;48.152;8.590;2024-01-11T07:11:54;-7.00;14.10
10304;DHT22;5197;48.152;8.590;2024-01-11T07:14:21;-6.90;15.40
10304;DHT22;5197;48.152;8.590;2024-01-11T07:16:48;-6.80;16.70
10304;DHT22;5197;48.152;8.590;2024-01-11T07:19:16;-6.70;16.60
10304;DHT22;5197;48.152;8.590;2024-01-11T07:21:43;-6.60;18.70
10304;DHT22;5197;48.152;8.590;2024-01-11T07:24:10;-6.50;19.50
10304;DHT22;5197;48.152;8.590;2024-01-11T07:26:37;-6.50;20.50
10304;DHT22;5197;48.152;8.590;2024-01-11T07:29:04;-6.50;19.70
10304;DHT22;5197;48.152;8.590;2024-01-11T07:31:31;-6.40;22.20
10304;DHT22;5197;48.152;8.590;2024-01-11T07:33:58;-6.40;24.30
10304;DHT22;5197;48.152;8.590;2024-01-11T07:36:29;-6.30;24.70
10304;DHT22;5197;48.152;8.590;2024-01-11T07:38:56;-6.30;25.60
10304;DHT22;5197;48.152;8.590;2024-01-11T07:41:23;-6.20;25.40
10304;DHT22;5197;48.152;8.590;2024-01-11T07:43:51;-6.00;25.40
10304;DHT22;5197;48.152;8.590;2024-01-11T07:46:21;-6.10;25.20
10304;DHT22;5197;48.152;8.590;2024-01-11T07:49:05;-6.10;24.50
10304;DHT22;5197;48.152;8.590;2024-01-11T07:51:34;-6.10;25.00
10304;DHT22;5197;48.152;8.590;2024-01-11T07:54:06;-6.10;26.00
10304;DHT22;5197;48.152;8.590;2024-01-11T07:56:33;-6.10;27.00
10304;DHT22;5197;48.152;8.590;2024-01-11T07:59:03;-6.10;27.30
10304;DHT22;5197;48.152;8.590;2024-01-11T08:01:29;-6.10;27.70
10304;DHT22;5197;48.152;8.590;2024-01-11T08:03:56;-6.10;28.20
10304;DHT22;5197;48.152;8.590;2024-01-11T08:06:23;-6.10;28.20
10304;DHT22;5197;48.152;8.590;2024-01-11T08:08:51;-6.10;28.70
10304;DHT22;5197;48.152;8.590;2024-01-11T08:11:18;-6.10;28.50
10304;DHT22;5197;48.152;8.590;2024-01-11T08:13:46;-7.50;27.50
10304;DHT22;5197;48.152;8.590;2024-01-11T08:16:16;-6.00;28.80
10304;DHT22;5197;48.152;8.590;2024-01-11T08:18:44;-6.00;28.90
10304;DHT22;5197;48.152;8.590;2024-01-11T08:21:12;-6.00;28.40
10304;DHT22;5197;48.152;8.590;2024-01-11T08:23:40;-6.00;27.90
10304;DHT22;5197;48.152;8.590;2024-01-11T08:26:13;-5.90;27.60
10304;DHT22;5197;48.152;8.590;2024-01-11T08:28:45;-5.80;27.00
10304;DHT22;5197;48.152;8.590;2024-01-11T08:31:18;-5.80;27.00
10304;DHT22;5197;48.152;8.590;2024-01-11T08:33:45;-5.70;27.00
10304;DHT22;5197;48.152;8.590;2024-01-11T08:36:13;-5.70;26.70
10304;DHT22;5197;48.152;8.590;2024-01-11T08:38:40;-5.60;26.40
10304;DHT22;5197;48.152;8.590;2024-01-11T08:41:07;-5.50;26.30
10304;DHT22;5197;48.152;8.590;2024-01-11T08:43:34;-5.50;26.00
10304;DHT22;5197;48.152;8.590;2024-01-11T08:46:01;-5.40;25.70
10304;DHT22;5197;48.152;8.590;2024-01-11T08:48:29;-5.40;25.20
10304;DHT22;5197;48.152;8.590;2024-01-11T08:50:56;-5.30;25.10
10304;DHT22;5197;48.152;8.590;2024-01-11T08:53:23;-5.30;25.60
10304;DHT22;5197;48.152;8.590;2024-01-11T08:55:51;-5.30;25.80
10304;DHT22;5197;48.152;8.590;2024-01-11T08:58:19;-5.20;26.20
10304;DHT22;5197;48.152;8.590;2024-01-11T09:00:46;-5.20;25.70
10304;DHT22;5197;48.152;8.590;2024-01-11T09:03:13;-5.10;25.40
10304;DHT22;5197;48.152;8.590;2024-01-11T09:05:42;-5.00;24.60
10304;DHT22;5197;48.152;8.590;2024-01-11T09:08:09;-5.00;24.60
10304;DHT22;5197;48.152;8.590;2024-01-11T09:10:36;-4.90;23.60
10304;DHT22;5197;48.152;8.590;2024-01-11T09:13:03;-4.80;23.80
10304;DHT22;5197;48.152;8.590;2024-01-11T09:15:30;-4.80;23.40
10304;DHT22;5197;48.152;8.590;2024-01-11T09:17:58;-4.80;23.30
10304;DHT22;5197;48.152;8.590;2024-01-11T09:20:27;-4.70;22.80
10304;DHT22;5197;48.152;8.590;2024-01-11T09:22:54;-4.70;23.30
10304;DHT22;5197;48.152;8.590;2024-01-11T09:25:21;-4.70;23.40
10304;DHT22;5197;48.152;8.590;2024-01-11T09:27:48;-4.70;23.10
10304;DHT22;5197;48.152;8.590;2024-01-11T09:30:16;-4.70;23.40
10304;DHT22;5197;48.152;8.590;2024-01-11T09:32:43;-4.60;23.50
10304;DHT22;5197;48.152;8.590;2024-01-11T09:35:10;-4.70;23.40
10304;DHT22;5197;48.152;8.590;2024-01-11T09:37:41;-4.70;24.20
10304;DHT22;5197;48.152;8.590;2024-01-11T09:40:10;-4.80;25.20
10304;DHT22;5197;48.152;8.590;2024-01-11T09:42:37;-4.90;26.20
10304;DHT22;5197;48.152;8.590;2024-01-11T09:45:14;-4.80;25.00
10304;DHT22;5197;48.152;8.590;2024-01-11T09:47:45;-4.80;24.60
10304;DHT22;5197;48.152;8.590;2024-01-11T09:50:15;-5.00;25.20
10304;DHT22;5197;48.152;8.590;2024-01-11T09:52:51;-5.00;26.00
10304;DHT22;5197;48.152;8.590;2024-01-11T09:55:18;-5.00;26.50
10304;DHT22;5197;48.152;8.590;2024-01-11T09:57:47;-5.00;26.40
10304;DHT22;5197;48.152;8.590;2024-01-11T10:00:24;-5.20;27.20
10304;DHT22;5197;48.152;8.590;2024-01-11T10:02:52;-5.20;28.80
10304;DHT22;5197;48.152;8.590;2024-01-11T10:05:19;-5.20;29.30
10304;DHT22;5197;48.152;8.590;2024-01-11T10:07:46;-5.10;29.80
10304;DHT22;5197;48.152;8.590;2024-01-11T10:10:13;-5.00;30.00
10304;DHT22;5197;48.152;8.590;2024-01-11T10:12:42;-5.00;29.80
10304;DHT22;5197;48.152;8.590;2024-01-11T10:15:10;-4.80;29.00
10304;DHT22;5197;48.152;8.590;2024-01-11T10:17:44;-4.70;29.00
10304;DHT22;5197;48.152;8.590;2024-01-11T10:20:12;-4.60;28.60
10304;DHT22;5197;48.152;8.590;2024-01-11T10:22:46;-4.50;28.20
10304;DHT22;5197;48.152;8.590;2024-01-11T10:25:14;-4.40;28.20
10304;DHT22;5197;48.152;8.590;2024-01-11T10:27:45;-4.40;27.00
10304;DHT22;5197;48.152;8.590;2024-01-11T10:30:16;-4.40;26.80
10304;DHT22;5197;48.152;8.590;2024-01-11T10:32:45;-4.40;26.40
10304;DHT22;5197;48.152;8.590;2024-01-11T10:35:13;-4.30;26.60
10304;DHT22;5197;48.152;8.590;2024-01-11T10:37:41;-4.40;25.70
10304;DHT22;5197;48.152;8.590;2024-01-11T10:40:09;-4.40;25.90
10304;DHT22;5197;48.152;8.590;2024-01-11T10:42:42;-4.30;26.20
10304;DHT22;5197;48.152;8.590;2024-01-11T10:45:16;-4.20;26.50
10304;DHT22;5197;48.152;8.590;2024-01-11T10:47:50;-4.00;26.50
10304;DHT22;5197;48.152;8.590;2024-01-11T10:50:19;-3.80;26.00
10304;DHT22;5197;48.152;8.590;2024-01-11T10:53:24;-3.60;25.10
10304;DHT22;5197;48.152;8.590;2024-01-11T10:55:52;-3.50;24.70
10304;DHT22;5197;48.152;8.590;2024-01-11T10:58:20;-3.30;24.20
10304;DHT22;5197;48.152;8.590;2024-01-11T11:00:49;-3.30;23.10
10304;DHT22;5197;48.152;8.590;2024-01-11T11:03:18;-3.30;22.40
10304;DHT22;5197;48.152;8.590;2024-01-11T11:05:48;-3.20;22.80
10304;DHT22;5197;48.152;8.590;2024-01-11T11:08:17;-3.10;22.50
10304;DHT22;5197;48.152;8.590;2024-01-11T11:10:45;-3.00;22.40
10304;DHT22;5197;48.152;8.590;2024-01-11T11:13:14;-2.90;22.30
10304;DHT22;5197;48.152;8.590;2024-01-11T11:15:48;-2.90;21.20
10304;DHT22;5197;48.152;8.590;2024-01-11T11:18:16;-3.00;20.40
10304;DHT22;5197;48.152;8.590;2024-01-11T11:20:43;-3.00;20.20
10304;DHT22;5197;48.152;8.590;2024-01-11T11:23:13;-3.10;21.00
10304;DHT22;5197;48.152;8.590;2024-01-11T11:25:41;-3.00;21.70
10304;DHT22;5197;48.152;8.590;2024-01-11T11:28:11;-2.90;22.10
10304;DHT22;5197;48.152;8.590;2024-01-11T11:30:41;-2.80;22.00
10304;DHT22;5197;48.152;8.590;2024-01-11T11:33:17;-2.60;21.70
10304;DHT22;5197;48.152;8.590;2024-01-11T11:35:48;-2.70;20.10
10304;DHT22;5197;48.152;8.590;2024-01-11T11:38:21;-2.80;19.20
10304;DHT22;5197;48.152;8.590;2024-01-11T11:40:48;-2.90;18.90
10304;DHT22;5197;48.152;8.590;2024-01-11T11:43:18;-3.10;19.20
10304;DHT22;5197;48.152;8.590;2024-01-11T11:45:49;-3.20;19.70
10304;DHT22;5197;48.152;8.590;2024-01-11T11:51:12;-3.30;20.90
10304;DHT22;5197;48.152;8.590;2024-01-11T11:53:45;-3.20;21.90
10304;DHT22;5197;48.152;8.590;2024-01-11T11:56:13;-3.10;22.30
10304;DHT22;5197;48.152;8.590;2024-01-11T11:58:44;-3.00;22.20
10304;DHT22;5197;48.152;8.590;2024-01-11T12:01:14;-3.00;21.60
10304;DHT22;5197;48.152;8.590;2024-01-11T12:03:41;-3.10;20.60
10304;DHT22;5197;48.152;8.590;2024-01-11T12:06:09;-3.20;20.00
10304;DHT22;5197;48.152;8.590;2024-01-11T12:08:37;-3.30;20.30
10304;DHT22;5197;48.152;8.590;2024-01-11T12:11:09;-3.40;20.90
10304;DHT22;5197;48.152;8.590;2024-01-11T12:13:36;-3.40;21.70
10304;DHT22;5197;48.152;8.590;2024-01-11T12:16:03;-3.40;21.90
10304;DHT22;5197;48.152;8.590;2024-01-11T12:18:30;-3.50;22.10
10304;DHT22;5197;48.152;8.590;2024-01-11T12:20:57;-3.50;23.00
10304;DHT22;5197;48.152;8.590;2024-01-11T12:23:24;-3.50;23.90
10304;DHT22;5197;48.152;8.590;2024-01-11T12:25:51;-3.50;24.20
10304;DHT22;5197;48.152;8.590;2024-01-11T12:28:18;-3.60;24.10
10304;DHT22;5197;48.152;8.590;2024-01-11T12:30:45;-3.70;24.30
10304;DHT22;5197;48.152;8.590;2024-01-11T12:33:13;-3.70;24.80
10304;DHT22;5197;48.152;8.590;2024-01-11T12:35:40;-3.70;25.70
10304;DHT22;5197;48.152;8.590;2024-01-11T12:38:07;-3.70;25.70
10304;DHT22;5197;48.152;8.590;2024-01-11T12:40:36;-3.80;26.20
10304;DHT22;5197;48.152;8.590;2024-01-11T12:43:07;-3.70;26.90
10304;DHT22;5197;48.152;8.590;2024-01-11T12:45:35;-3.70;26.70
10304;DHT22;5197;48.152;8.590;2024-01-11T12:48:03;-3.60;26.90
10304;DHT22;5197;48.152;8.590;2024-01-11T12:50:33;-3.60;26.90
10304;DHT22;5197;48.152;8.590;2024-01-11T12:53:18;-3.40;26.30
10304;DHT22;5197;48.152;8.590;2024-01-11T12:55:47;-3.30;25.70
10304;DHT22;5197;48.152;8.590;2024-01-11T12:58:24;-3.20;24.90
10304;DHT22;5197;48.152;8.590;2024-01-11T13:00:53;-3.20;24.60
10304;DHT22;5197;48.152;8.590;2024-01-11T13:03:21;-3.20;24.30
10304;DHT22;5197;48.152;8.590;2024-01-11T13:05:48;-3.10;24.40
10304;DHT22;5197;48.152;8.590;2024-01-11T13:08:16;-3.10;24.40
10304;DHT22;5197;48.152;8.590;2024-01-11T13:10:46;-3.00;24.40
10304;DHT22;5197;48.152;8.590;2024-01-11T13:13:15;-2.80;24.50
10304;DHT22;5197;48.152;8.590;2024-01-11T13:15:42;-2.80;23.40
10304;DHT22;5197;48.152;8.590;2024-01-11T13:18:09;-2.80;22.40
10304;DHT22;5197;48.152;8.590;2024-01-11T13:20:36;-2.90;21.80
10304;DHT22;5197;48.152;8.590;2024-01-11T13:23:17;-3.00;22.20
10304;DHT22;5197;48.152;8.590;2024-01-11T13:25:47;-3.00;23.20
10304;DHT22;5197;48.152;8.590;2024-01-11T13:28:16;-2.90;23.40
10304;DHT22;5197;48.152;8.590;2024-01-11T13:30:43;-2.90;23.40
10304;DHT22;5197;48.152;8.590;2024-01-11T13:33:12;-2.80;24.40
10304;DHT22;5197;48.152;8.590;2024-01-11T13:35:40;-2.80;23.50
10304;DHT22;5197;48.152;8.590;2024-01-11T13:38:08;-2.60;23.30
10304;DHT22;5197;48.152;8.590;2024-01-11T13:40:35;-2.60;22.70
10304;DHT22;5197;48.152;8.590;2024-01-11T13:43:02;-2.50;22.40
10304;DHT22;5197;48.152;8.590;2024-01-11T13:45:29;-2.50;22.20
10304;DHT22;5197;48.152;8.590;2024-01-11T13:47:57;-2.50;21.80
10304;DHT22;5197;48.152;8.590;2024-01-11T13:50:24;-2.60;21.10
10304;DHT22;5197;48.152;8.590;2024-01-11T13:52:52;-2.70;21.20
10304;DHT22;5197;48.152;8.590;2024-01-11T13:55:19;-2.80;22.00
10304;DHT22;5197;48.152;8.590;2024-01-11T13:57:50;-2.80;22.50
10304;DHT22;5197;48.152;8.590;2024-01-11T14:00:18;-2.80;22.60
10304;DHT22;5197;48.152;8.590;2024-01-11T14:02:48;-2.80;22.50
10304;DHT22;5197;48.152;8.590;2024-01-11T14:05:17;-2.80;22.70
10304;DHT22;5197;48.152;8.590;2024-01-11T14:07:46;-2.80;22.50
10304;DHT22;5197;48.152;8.590;2024-01-11T14:10:14;-2.70;22.70
10304;DHT22;5197;48.152;8.590;2024-01-11T14:12:42;-2.80;22.20
10304;DHT22;5197;48.152;8.590;2024-01-11T14:15:10;-2.70;22.50
10304;DHT22;5197;48.152;8.590;2024-01-11T14:17:40;-2.70;21.90
10304;DHT22;5197;48.152;8.590;2024-01-11T14:20:08;-2.70;22.10
10304;DHT22;5197;48.152;8.590;2024-01-11T14:22:41;-2.70;21.80
10304;DHT22;5197;48.152;8.590;2024-01-11T14:25:09;-2.60;21.90
10304;DHT22;5197;48.152;8.590;2024-01-11T14:31:27;-2.50;21.30
10304;DHT22;5197;48.152;8.590;2024-01-11T14:33:54;-2.40;20.90
10304;DHT22;5197;48.152;8.590;2024-01-11T14:36:22;-2.30;20.20
10304;DHT22;5197;48.152;8.590;2024-01-11T14:38:49;-2.30;19.60
10304;DHT22;5197;48.152;8.590;2024-01-11T14:41:17;-2.30;19.10
10304;DHT22;5197;48.152;8.590;2024-01-11T14:43:44;-2.40;18.80
10304;DHT22;5197;48.152;8.590;2024-01-11T14:46:12;-2.40;18.70
10304;DHT22;5197;48.152;8.590;2024-01-11T14:48:40;-2.40;18.60
10304;DHT22;5197;48.152;8.590;2024-01-11T14:51:08;-2.40;18.80
10304;DHT22;5197;48.152;8.590;2024-01-11T14:53:35;-2.50;18.60
10304;DHT22;5197;48.152;8.590;2024-01-11T14:56:02;-2.50;18.60
10304;DHT22;5197;48.152;8.590;2024-01-11T14:58:29;-1.80;19.40
10304;DHT22;5197;48.152;8.590;2024-01-11T15:00:56;-2.50;18.30
10304;DHT22;5197;48.152;8.590;2024-01-11T15:03:23;-2.50;17.90
10304;DHT22;5197;48.152;8.590;2024-01-11T15:05:54;-2.60;17.90
10304;DHT22;5197;48.152;8.590;2024-01-11T15:08:21;-2.70;17.90
10304;DHT22;5197;48.152;8.590;2024-01-11T15:10:49;-2.70;18.10
10304;DHT22;5197;48.152;8.590;2024-01-11T15:13:16;-2.80;18.20
10304;DHT22;5197;48.152;8.590;2024-01-11T15:15:43;-2.90;18.90
10304;DHT22;5197;48.152;8.590;2024-01-11T15:18:09;-2.90;19.00
10304;DHT22;5197;48.152;8.590;2024-01-11T15:20:37;-2.90;19.00
10304;DHT22;5197;48.152;8.590;2024-01-11T15:23:04;-3.00;18.90
10304;DHT22;5197;48.152;8.590;2024-01-11T15:25:32;-3.00;19.10
10304;DHT22;5197;48.152;8.590;2024-01-11T15:27:59;-3.00;19.10
10304;DHT22;5197;48.152;8.590;2024-01-11T15:30:26;-3.10;18.70
10304;DHT22;5197;48.152;8.590;2024-01-11T15:32:53;-3.20;19.10
10304;DHT22;5197;48.152;8.590;2024-01-11T15:35:23;-3.10;19.30
10304;DHT22;5197;48.152;8.590;2024-01-11T15:37:50;-3.20;19.40
10304;DHT22;5197;48.152;8.590;2024-01-11T15:40:17;-3.20;19.70
10304;DHT22;5197;48.152;8.590;2024-01-11T15:42:45;-3.10;19.80
10304;DHT22;5197;48.152;8.590;2024-01-11T15:45:12;-3.10;19.70
10304;DHT22;5197;48.152;8.590;2024-01-11T15:47:39;-3.00;19.30
10304;DHT22;5197;48.152;8.590;2024-01-11T15:50:06;-3.10;18.80
10304;DHT22;5197;48.152;8.590;2024-01-11T15:52:38;-3.10;18.50
10304;DHT22;5197;48.152;8.590;2024-01-11T15:55:05;-3.20;18.20
10304;DHT22;5197;48.152;8.590;2024-01-11T15:57:35;-3.30;18.70
10304;DHT22;5197;48.152;8.590;2024-01-11T16:00:03;-3.30;19.30